パリ/シャルル・ド・ゴール の空港の天気 - METARとTAF

シャルル・ド・ゴール国際空港(パリ) ( LFPG / CDG ) - フランス Paris
飛行場実況気象(Metar)
観測時間11/17 18:30 CET (11/17 17:30 UTC)
風向・風速北東 5m/s
視程10km以上
天気現象
なし
気温5℃
湿度75%
気圧1023hPa
METARLFPG 171730Z 05009KT CAVOK 05/01 Q1023 NOSIG
過去の天気等 Google飛行場航空写真 Wunderground天気予報

過去48時間のMETAR

飛行場予報(TAF)
発表時間: 11/17 18:00 CET (11/17 17:00 UTC)
予報対象時間: 17日19時 CET ~ 19日1時 CET
風向・風速北東 5m/s
視程10km以上
なし
TAF LFPG 171700Z 1718/1824 05010KT CAVOK TX08/1814Z TN01/1805Z